Terminal Aerodrome Forecast
Issued by NWS

Home | Current Version | Previous Version | Graphics & Text | Print | Product List | Glossary On
Versions: 1 2 3 4 5 6 7 8 9 10 11 12 13 14
000
FTUS45 KGGW 222326
TAFOLF
TAF
KOLF 222326Z 2300/2324 23005KT P6SM VCTS SCT090CB
     FM230300 07005KT P6SM VCSH BKN090
     FM230600 07005KT P6SM SCT070 PROB30 2315/2318 4SM TS OVC070CB
     FM231800 09013KT P6SM -TSRA BKN070CB
     FM232200 08014G22KT P6SM -TSRA BKN021CB=

USA.gov is the U.S. government's official web portal to all federal, state and local government web resources and services.